sensor_id;sensor_type;location;lat;lon;timestamp;temperature;humidity
77727;SHT30;68312;53.502;10.030;2023-06-10T00:01:06;14.06;87.63
77727;SHT30;68312;53.502;10.030;2023-06-10T00:03:31;14.02;87.34
77727;SHT30;68312;53.502;10.030;2023-06-10T00:05:57;14.02;86.98
77727;SHT30;68312;53.502;10.030;2023-06-10T00:08:22;14.00;86.47
77727;SHT30;68312;53.502;10.030;2023-06-10T00:10:48;14.00;86.56
77727;SHT30;68312;53.502;10.030;2023-06-10T00:13:13;13.91;86.39
77727;SHT30;68312;53.502;10.030;2023-06-10T00:15:42;13.89;86.23
77727;SHT30;68312;53.502;10.030;2023-06-10T00:18:07;13.82;86.41
77727;SHT30;68312;53.502;10.030;2023-06-10T00:20:33;13.82;86.25
77727;SHT30;68312;53.502;10.030;2023-06-10T00:22:59;13.76;86.11
77727;SHT30;68312;53.502;10.030;2023-06-10T00:25:24;13.70;86.23
77727;SHT30;68312;53.502;10.030;2023-06-10T00:27:50;13.66;86.29
77727;SHT30;68312;53.502;10.030;2023-06-10T00:30:15;13.63;86.46
77727;SHT30;68312;53.502;10.030;2023-06-10T00:32:41;13.59;86.79
77727;SHT30;68312;53.502;10.030;2023-06-10T00:35:07;13.53;86.84
77727;SHT30;68312;53.502;10.030;2023-06-10T00:37:33;13.53;87.08
77727;SHT30;68312;53.502;10.030;2023-06-10T00:39:59;13.44;87.29
77727;SHT30;68312;53.502;10.030;2023-06-10T00:42:24;13.44;87.42
77727;SHT30;68312;53.502;10.030;2023-06-10T00:44:51;13.39;87.36
77727;SHT30;68312;53.502;10.030;2023-06-10T00:47:16;13.38;87.33
77727;SHT30;68312;53.502;10.030;2023-06-10T00:49:44;13.32;87.29
77727;SHT30;68312;53.502;10.030;2023-06-10T00:52:11;13.25;87.48
77727;SHT30;68312;53.502;10.030;2023-06-10T00:54:38;13.21;87.34
77727;SHT30;68312;53.502;10.030;2023-06-10T00:57:04;13.22;87.42
77727;SHT30;68312;53.502;10.030;2023-06-10T00:59:31;13.16;87.21
77727;SHT30;68312;53.502;10.030;2023-06-10T01:01:57;13.14;86.92
77727;SHT30;68312;53.502;10.030;2023-06-10T01:04:23;13.10;86.91
77727;SHT30;68312;53.502;10.030;2023-06-10T01:06:59;13.03;86.82
77727;SHT30;68312;53.502;10.030;2023-06-10T01:13:09;12.97;86.71
77727;SHT30;68312;53.502;10.030;2023-06-10T01:15:37;12.91;86.81
77727;SHT30;68312;53.502;10.030;2023-06-10T01:18:08;12.87;86.59
77727;SHT30;68312;53.502;10.030;2023-06-10T01:20:37;12.77;86.81
77727;SHT30;68312;53.502;10.030;2023-06-10T01:23:03;12.72;86.98
77727;SHT30;68312;53.502;10.030;2023-06-10T01:25:30;12.68;86.99
77727;SHT30;68312;53.502;10.030;2023-06-10T01:28:29;12.64;86.99
77727;SHT30;68312;53.502;10.030;2023-06-10T01:31:18;12.56;87.02
77727;SHT30;68312;53.502;10.030;2023-06-10T01:33:56;12.53;87.30
77727;SHT30;68312;53.502;10.030;2023-06-10T01:36:23;12.53;87.24
77727;SHT30;68312;53.502;10.030;2023-06-10T01:38:50;12.52;87.00
77727;SHT30;68312;53.502;10.030;2023-06-10T01:41:19;12.52;86.84
77727;SHT30;68312;53.502;10.030;2023-06-10T01:43:46;12.47;86.66
77727;SHT30;68312;53.502;10.030;2023-06-10T01:46:14;12.45;86.85
77727;SHT30;68312;53.502;10.030;2023-06-10T01:48:43;12.47;86.85
77727;SHT30;68312;53.502;10.030;2023-06-10T01:51:09;12.47;86.71
77727;SHT30;68312;53.502;10.030;2023-06-10T01:53:34;12.43;86.62
77727;SHT30;68312;53.502;10.030;2023-06-10T01:56:00;12.43;86.77
77727;SHT30;68312;53.502;10.030;2023-06-10T01:58:25;12.43;86.58
77727;SHT30;68312;53.502;10.030;2023-06-10T02:00:51;12.46;86.52
77727;SHT30;68312;53.502;10.030;2023-06-10T02:03:16;12.45;86.45
77727;SHT30;68312;53.502;10.030;2023-06-10T02:05:42;12.45;86.34
77727;SHT30;68312;53.502;10.030;2023-06-10T02:08:10;12.42;86.24
77727;SHT30;68312;53.502;10.030;2023-06-10T02:10:35;12.43;86.26
77727;SHT30;68312;53.502;10.030;2023-06-10T02:13:01;12.42;86.17
77727;SHT30;68312;53.502;10.030;2023-06-10T02:15:27;12.42;86.14
77727;SHT30;68312;53.502;10.030;2023-06-10T02:17:52;12.40;86.15
77727;SHT30;68312;53.502;10.030;2023-06-10T02:20:18;12.42;86.13
77727;SHT30;68312;53.502;10.030;2023-06-10T02:22:43;12.37;86.26
77727;SHT30;68312;53.502;10.030;2023-06-10T02:25:09;12.36;86.24
77727;SHT30;68312;53.502;10.030;2023-06-10T02:27:34;12.33;86.37
77727;SHT30;68312;53.502;10.030;2023-06-10T02:30:00;12.32;86.26
77727;SHT30;68312;53.502;10.030;2023-06-10T02:32:25;12.30;86.27
77727;SHT30;68312;53.502;10.030;2023-06-10T02:34:51;12.37;85.99
77727;SHT30;68312;53.502;10.030;2023-06-10T02:37:17;12.30;85.93
77727;SHT30;68312;53.502;10.030;2023-06-10T02:39:43;12.30;86.09
77727;SHT30;68312;53.502;10.030;2023-06-10T02:42:09;12.32;85.94
77727;SHT30;68312;53.502;10.030;2023-06-10T02:44:34;12.29;85.83
77727;SHT30;68312;53.502;10.030;2023-06-10T02:47:00;12.29;85.88
77727;SHT30;68312;53.502;10.030;2023-06-10T02:49:26;12.28;85.87
77727;SHT30;68312;53.502;10.030;2023-06-10T02:51:51;12.26;85.89
77727;SHT30;68312;53.502;10.030;2023-06-10T02:54:17;12.22;85.91
77727;SHT30;68312;53.502;10.030;2023-06-10T02:56:43;12.22;85.88
77727;SHT30;68312;53.502;10.030;2023-06-10T02:59:09;12.24;85.85
77727;SHT30;68312;53.502;10.030;2023-06-10T03:01:34;12.26;85.70
77727;SHT30;68312;53.502;10.030;2023-06-10T03:03:59;12.25;85.67
77727;SHT30;68312;53.502;10.030;2023-06-10T03:06:25;12.25;85.67
77727;SHT30;68312;53.502;10.030;2023-06-10T03:08:50;12.24;85.65
77727;SHT30;68312;53.502;10.030;2023-06-10T03:11:16;12.19;85.56
77727;SHT30;68312;53.502;10.030;2023-06-10T03:13:41;12.16;85.87
77727;SHT30;68312;53.502;10.030;2023-06-10T03:16:07;12.18;85.86
77727;SHT30;68312;53.502;10.030;2023-06-10T03:18:32;12.22;85.75
77727;SHT30;68312;53.502;10.030;2023-06-10T03:20:58;12.24;85.77
77727;SHT30;68312;53.502;10.030;2023-06-10T03:23:23;12.26;85.56
77727;SHT30;68312;53.502;10.030;2023-06-10T03:25:49;12.26;85.50
77727;SHT30;68312;53.502;10.030;2023-06-10T03:28:14;12.28;85.52
77727;SHT30;68312;53.502;10.030;2023-06-10T03:30:40;12.28;85.49
77727;SHT30;68312;53.502;10.030;2023-06-10T03:33:06;12.30;85.49
77727;SHT30;68312;53.502;10.030;2023-06-10T03:35:31;12.30;85.49
77727;SHT30;68312;53.502;10.030;2023-06-10T03:37:57;12.32;85.29
77727;SHT30;68312;53.502;10.030;2023-06-10T03:40:22;12.36;85.34
77727;SHT30;68312;53.502;10.030;2023-06-10T03:42:48;12.36;85.34
77727;SHT30;68312;53.502;10.030;2023-06-10T03:45:13;12.39;85.29
77727;SHT30;68312;53.502;10.030;2023-06-10T03:47:39;12.43;85.20
77727;SHT30;68312;53.502;10.030;2023-06-10T03:50:05;12.49;84.86
77727;SHT30;68312;53.502;10.030;2023-06-10T03:52:30;12.52;84.62
77727;SHT30;68312;53.502;10.030;2023-06-10T03:54:56;12.56;84.66
77727;SHT30;68312;53.502;10.030;2023-06-10T03:57:22;12.61;84.35
77727;SHT30;68312;53.502;10.030;2023-06-10T03:59:47;12.63;84.40
77727;SHT30;68312;53.502;10.030;2023-06-10T04:02:13;12.66;84.53
77727;SHT30;68312;53.502;10.030;2023-06-10T04:04:38;12.70;84.30
77727;SHT30;68312;53.502;10.030;2023-06-10T04:07:04;12.74;84.32
77727;SHT30;68312;53.502;10.030;2023-06-10T04:09:30;12.80;84.05
77727;SHT30;68312;53.502;10.030;2023-06-10T04:11:56;12.83;83.91
77727;SHT30;68312;53.502;10.030;2023-06-10T04:14:21;12.86;83.96
77727;SHT30;68312;53.502;10.030;2023-06-10T04:16:47;12.84;84.35
77727;SHT30;68312;53.502;10.030;2023-06-10T04:19:12;12.90;83.87
77727;SHT30;68312;53.502;10.030;2023-06-10T04:21:38;12.98;83.77
77727;SHT30;68312;53.502;10.030;2023-06-10T04:24:04;13.03;83.60
77727;SHT30;68312;53.502;10.030;2023-06-10T04:26:29;13.12;82.98
77727;SHT30;68312;53.502;10.030;2023-06-10T04:28:55;13.14;83.12
77727;SHT30;68312;53.502;10.030;2023-06-10T04:31:20;13.18;82.97
77727;SHT30;68312;53.502;10.030;2023-06-10T04:33:46;13.28;82.59
77727;SHT30;68312;53.502;10.030;2023-06-10T04:36:11;13.31;82.85
77727;SHT30;68312;53.502;10.030;2023-06-10T04:38:37;13.36;82.26
77727;SHT30;68312;53.502;10.030;2023-06-10T04:41:02;13.39;81.91
77727;SHT30;68312;53.502;10.030;2023-06-10T04:43:29;13.42;82.29
77727;SHT30;68312;53.502;10.030;2023-06-10T04:45:55;13.42;82.27
77727;SHT30;68312;53.502;10.030;2023-06-10T04:48:21;13.49;82.14
77727;SHT30;68312;53.502;10.030;2023-06-10T04:50:46;13.52;82.02
77727;SHT30;68312;53.502;10.030;2023-06-10T04:53:12;13.55;81.60
77727;SHT30;68312;53.502;10.030;2023-06-10T04:55:37;13.66;81.68
77727;SHT30;68312;53.502;10.030;2023-06-10T04:58:03;13.70;81.28
77727;SHT30;68312;53.502;10.030;2023-06-10T05:00:28;13.76;81.56
77727;SHT30;68312;53.502;10.030;2023-06-10T05:02:54;13.83;80.83
77727;SHT30;68312;53.502;10.030;2023-06-10T05:05:19;13.93;80.21
77727;SHT30;68312;53.502;10.030;2023-06-10T05:07:45;14.00;79.99
77727;SHT30;68312;53.502;10.030;2023-06-10T05:10:14;14.04;80.30
77727;SHT30;68312;53.502;10.030;2023-06-10T05:12:40;14.10;80.03
77727;SHT30;68312;53.502;10.030;2023-06-10T05:15:07;14.18;80.38
77727;SHT30;68312;53.502;10.030;2023-06-10T05:17:33;14.31;79.35
77727;SHT30;68312;53.502;10.030;2023-06-10T05:19:59;14.37;79.24
77727;SHT30;68312;53.502;10.030;2023-06-10T05:22:24;14.42;78.95
77727;SHT30;68312;53.502;10.030;2023-06-10T05:24:50;14.48;79.05
77727;SHT30;68312;53.502;10.030;2023-06-10T05:27:16;14.57;78.49
77727;SHT30;68312;53.502;10.030;2023-06-10T05:29:45;14.64;78.28
77727;SHT30;68312;53.502;10.030;2023-06-10T05:32:11;14.71;78.80
77727;SHT30;68312;53.502;10.030;2023-06-10T05:34:37;14.81;77.95
77727;SHT30;68312;53.502;10.030;2023-06-10T05:37:02;14.92;77.40
77727;SHT30;68312;53.502;10.030;2023-06-10T05:39:29;15.02;77.81
77727;SHT30;68312;53.502;10.030;2023-06-10T05:41:54;15.04;77.71
77727;SHT30;68312;53.502;10.030;2023-06-10T05:44:20;15.14;77.15
77727;SHT30;68312;53.502;10.030;2023-06-10T05:46:45;15.22;77.32
77727;SHT30;68312;53.502;10.030;2023-06-10T05:49:11;15.23;76.28
77727;SHT30;68312;53.502;10.030;2023-06-10T05:51:37;15.27;76.48
77727;SHT30;68312;53.502;10.030;2023-06-10T05:54:02;15.33;76.45
77727;SHT30;68312;53.502;10.030;2023-06-10T05:56:29;15.46;76.00
77727;SHT30;68312;53.502;10.030;2023-06-10T05:58:54;15.54;76.46
77727;SHT30;68312;53.502;10.030;2023-06-10T06:01:20;15.71;76.33
77727;SHT30;68312;53.502;10.030;2023-06-10T06:03:45;15.82;75.15
77727;SHT30;68312;53.502;10.030;2023-06-10T06:06:11;15.91;74.12
77727;SHT30;68312;53.502;10.030;2023-06-10T06:08:36;15.94;73.96
77727;SHT30;68312;53.502;10.030;2023-06-10T06:11:02;15.91;73.90
77727;SHT30;68312;53.502;10.030;2023-06-10T06:13:27;15.95;74.87
77727;SHT30;68312;53.502;10.030;2023-06-10T06:15:53;15.98;73.86
77727;SHT30;68312;53.502;10.030;2023-06-10T06:18:18;16.04;73.70
77727;SHT30;68312;53.502;10.030;2023-06-10T06:20:44;16.08;73.24
77727;SHT30;68312;53.502;10.030;2023-06-10T06:23:09;16.12;74.05
77727;SHT30;68312;53.502;10.030;2023-06-10T06:25:35;16.28;72.89
77727;SHT30;68312;53.502;10.030;2023-06-10T06:28:01;16.36;73.54
77727;SHT30;68312;53.502;10.030;2023-06-10T06:30:26;16.47;72.83
77727;SHT30;68312;53.502;10.030;2023-06-10T06:32:52;16.60;71.78
77727;SHT30;68312;53.502;10.030;2023-06-10T06:35:18;16.70;71.50
77727;SHT30;68312;53.502;10.030;2023-06-10T06:37:43;16.85;71.89
77727;SHT30;68312;53.502;10.030;2023-06-10T06:40:09;16.89;70.63
77727;SHT30;68312;53.502;10.030;2023-06-10T06:42:35;17.03;70.73
77727;SHT30;68312;53.502;10.030;2023-06-10T06:45:01;17.04;70.09
77727;SHT30;68312;53.502;10.030;2023-06-10T06:47:26;17.11;70.80
77727;SHT30;68312;53.502;10.030;2023-06-10T06:49:52;17.19;69.56
77727;SHT30;68312;53.502;10.030;2023-06-10T06:52:18;17.35;69.80
77727;SHT30;68312;53.502;10.030;2023-06-10T06:54:43;17.49;69.05
77727;SHT30;68312;53.502;10.030;2023-06-10T06:57:09;17.67;69.58
77727;SHT30;68312;53.502;10.030;2023-06-10T06:59:34;17.66;68.29
77727;SHT30;68312;53.502;10.030;2023-06-10T07:02:00;17.93;69.08
77727;SHT30;68312;53.502;10.030;2023-06-10T07:04:25;18.04;67.62
77727;SHT30;68312;53.502;10.030;2023-06-10T07:06:51;17.94;66.93
77727;SHT30;68312;53.502;10.030;2023-06-10T07:09:16;18.01;69.03
77727;SHT30;68312;53.502;10.030;2023-06-10T07:11:42;18.28;67.19
77727;SHT30;68312;53.502;10.030;2023-06-10T07:14:08;18.47;65.84
77727;SHT30;68312;53.502;10.030;2023-06-10T07:16:34;18.62;65.12
77727;SHT30;68312;53.502;10.030;2023-06-10T07:18:59;18.72;65.42
77727;SHT30;68312;53.502;10.030;2023-06-10T07:21:25;18.83;64.37
77727;SHT30;68312;53.502;10.030;2023-06-10T07:23:50;19.12;66.38
77727;SHT30;68312;53.502;10.030;2023-06-10T07:26:16;19.20;65.53
77727;SHT30;68312;53.502;10.030;2023-06-10T07:28:42;19.35;63.95
77727;SHT30;68312;53.502;10.030;2023-06-10T07:31:08;19.50;65.00
77727;SHT30;68312;53.502;10.030;2023-06-10T07:33:34;19.78;62.58
77727;SHT30;68312;53.502;10.030;2023-06-10T07:36:00;20.01;62.01
77727;SHT30;68312;53.502;10.030;2023-06-10T07:38:26;20.15;60.63
77727;SHT30;68312;53.502;10.030;2023-06-10T07:40:52;20.23;60.21
77727;SHT30;68312;53.502;10.030;2023-06-10T07:43:18;20.47;60.59
77727;SHT30;68312;53.502;10.030;2023-06-10T07:45:44;20.68;59.83
77727;SHT30;68312;53.502;10.030;2023-06-10T07:48:10;20.67;58.72
77727;SHT30;68312;53.502;10.030;2023-06-10T07:50:36;20.77;60.56
77727;SHT30;68312;53.502;10.030;2023-06-10T07:53:02;21.01;59.28
77727;SHT30;68312;53.502;10.030;2023-06-10T07:55:31;21.12;57.31
77727;SHT30;68312;53.502;10.030;2023-06-10T07:57:56;21.38;59.66
77727;SHT30;68312;53.502;10.030;2023-06-10T08:00:23;21.28;57.20
77727;SHT30;68312;53.502;10.030;2023-06-10T08:02:49;21.31;57.11
77727;SHT30;68312;53.502;10.030;2023-06-10T08:05:14;21.50;56.51
77727;SHT30;68312;53.502;10.030;2023-06-10T08:07:40;21.38;56.91
77727;SHT30;68312;53.502;10.030;2023-06-10T08:10:07;21.83;56.97
77727;SHT30;68312;53.502;10.030;2023-06-10T08:12:33;22.03;55.82
77727;SHT30;68312;53.502;10.030;2023-06-10T08:15:00;22.22;55.20
77727;SHT30;68312;53.502;10.030;2023-06-10T08:17:26;22.28;54.36
77727;SHT30;68312;53.502;10.030;2023-06-10T08:19:51;22.21;55.99
77727;SHT30;68312;53.502;10.030;2023-06-10T08:22:17;22.49;54.45
77727;SHT30;68312;53.502;10.030;2023-06-10T08:24:43;22.61;53.78
77727;SHT30;68312;53.502;10.030;2023-06-10T08:27:08;23.04;53.98
77727;SHT30;68312;53.502;10.030;2023-06-10T08:29:34;23.16;52.58
77727;SHT30;68312;53.502;10.030;2023-06-10T08:32:00;23.04;52.76
77727;SHT30;68312;53.502;10.030;2023-06-10T08:34:25;23.13;52.88
77727;SHT30;68312;53.502;10.030;2023-06-10T08:36:51;23.10;53.41
77727;SHT30;68312;53.502;10.030;2023-06-10T08:39:16;23.41;53.07
77727;SHT30;68312;53.502;10.030;2023-06-10T08:41:43;23.94;51.29
77727;SHT30;68312;53.502;10.030;2023-06-10T08:44:22;24.04;49.28
77727;SHT30;68312;53.502;10.030;2023-06-10T08:47:00;24.61;49.10
77727;SHT30;68312;53.502;10.030;2023-06-10T08:49:27;25.19;46.69
77727;SHT30;68312;53.502;10.030;2023-06-10T08:51:59;25.77;46.50
77727;SHT30;68312;53.502;10.030;2023-06-10T08:54:31;26.44;45.93
77727;SHT30;68312;53.502;10.030;2023-06-10T08:57:00;26.99;44.43
77727;SHT30;68312;53.502;10.030;2023-06-10T08:59:29;27.24;42.68
77727;SHT30;68312;53.502;10.030;2023-06-10T09:01:54;27.20;43.12
77727;SHT30;68312;53.502;10.030;2023-06-10T09:04:20;27.07;42.95
77727;SHT30;68312;53.502;10.030;2023-06-10T09:06:48;26.72;44.57
77727;SHT30;68312;53.502;10.030;2023-06-10T09:09:14;27.70;45.50
77727;SHT30;68312;53.502;10.030;2023-06-10T09:11:43;27.95;41.22
77727;SHT30;68312;53.502;10.030;2023-06-10T09:14:08;27.98;41.69
77727;SHT30;68312;53.502;10.030;2023-06-10T09:16:34;28.22;42.39
77727;SHT30;68312;53.502;10.030;2023-06-10T09:19:01;28.59;40.41
77727;SHT30;68312;53.502;10.030;2023-06-10T09:21:28;28.77;43.22
77727;SHT30;68312;53.502;10.030;2023-06-10T09:23:53;28.83;39.14
77727;SHT30;68312;53.502;10.030;2023-06-10T09:26:19;28.79;41.85
77727;SHT30;68312;53.502;10.030;2023-06-10T09:28:48;28.87;39.95
77727;SHT30;68312;53.502;10.030;2023-06-10T09:31:14;28.25;40.45
77727;SHT30;68312;53.502;10.030;2023-06-10T09:33:41;28.52;40.83
77727;SHT30;68312;53.502;10.030;2023-06-10T09:36:07;28.77;40.01
77727;SHT30;68312;53.502;10.030;2023-06-10T09:38:34;28.69;39.47
77727;SHT30;68312;53.502;10.030;2023-06-10T09:41:00;28.21;42.15
77727;SHT30;68312;53.502;10.030;2023-06-10T09:43:44;28.71;42.44
77727;SHT30;68312;53.502;10.030;2023-06-10T09:46:17;29.35;39.12
77727;SHT30;68312;53.502;10.030;2023-06-10T09:48:46;28.53;40.17
77727;SHT30;68312;53.502;10.030;2023-06-10T09:51:14;28.49;41.06
77727;SHT30;68312;53.502;10.030;2023-06-10T09:53:40;29.08;39.81
77727;SHT30;68312;53.502;10.030;2023-06-10T09:56:06;28.77;40.02
77727;SHT30;68312;53.502;10.030;2023-06-10T09:58:39;28.36;41.36
77727;SHT30;68312;53.502;10.030;2023-06-10T10:01:13;29.06;40.02
77727;SHT30;68312;53.502;10.030;2023-06-10T10:03:48;29.34;41.30
77727;SHT30;68312;53.502;10.030;2023-06-10T10:06:17;29.62;39.57
77727;SHT30;68312;53.502;10.030;2023-06-10T10:08:47;29.41;38.86
77727;SHT30;68312;53.502;10.030;2023-06-10T10:11:17;29.35;41.64
77727;SHT30;68312;53.502;10.030;2023-06-10T10:13:50;29.54;39.22
77727;SHT30;68312;53.502;10.030;2023-06-10T10:16:20;29.54;39.32
77727;SHT30;68312;53.502;10.030;2023-06-10T10:18:56;29.63;39.08
77727;SHT30;68312;53.502;10.030;2023-06-10T10:21:38;29.51;38.58
77727;SHT30;68312;53.502;10.030;2023-06-10T10:24:38;29.34;39.44
77727;SHT30;68312;53.502;10.030;2023-06-10T10:27:17;29.18;39.43
77727;SHT30;68312;53.502;10.030;2023-06-10T10:29:52;29.04;40.31
77727;SHT30;68312;53.502;10.030;2023-06-10T10:32:30;29.41;39.83
77727;SHT30;68312;53.502;10.030;2023-06-10T10:35:17;29.70;39.22
77727;SHT30;68312;53.502;10.030;2023-06-10T10:37:45;29.99;39.31
77727;SHT30;68312;53.502;10.030;2023-06-10T10:40:12;30.05;38.92
77727;SHT30;68312;53.502;10.030;2023-06-10T10:42:42;30.23;41.59
77727;SHT30;68312;53.502;10.030;2023-06-10T10:45:09;30.17;38.79
77727;SHT30;68312;53.502;10.030;2023-06-10T10:47:36;30.00;39.83
77727;SHT30;68312;53.502;10.030;2023-06-10T10:50:14;29.89;38.07
77727;SHT30;68312;53.502;10.030;2023-06-10T10:52:53;29.92;38.99
77727;SHT30;68312;53.502;10.030;2023-06-10T10:55:20;29.99;38.84
77727;SHT30;68312;53.502;10.030;2023-06-10T10:58:03;30.09;38.76
77727;SHT30;68312;53.502;10.030;2023-06-10T11:00:31;29.97;38.52
77727;SHT30;68312;53.502;10.030;2023-06-10T11:05:44;29.95;38.95
77727;SHT30;68312;53.502;10.030;2023-06-10T11:08:11;29.96;39.86
77727;SHT30;68312;53.502;10.030;2023-06-10T11:10:40;30.41;37.93
77727;SHT30;68312;53.502;10.030;2023-06-10T11:13:15;30.48;38.95
77727;SHT30;68312;53.502;10.030;2023-06-10T11:15:47;30.41;39.05
77727;SHT30;68312;53.502;10.030;2023-06-10T11:18:28;30.47;39.73
77727;SHT30;68312;53.502;10.030;2023-06-10T11:20:58;30.43;38.90
77727;SHT30;68312;53.502;10.030;2023-06-10T11:31:43;30.61;39.05
77727;SHT30;68312;53.502;10.030;2023-06-10T11:34:12;30.78;37.93
77727;SHT30;68312;53.502;10.030;2023-06-10T11:36:43;30.48;40.56
77727;SHT30;68312;53.502;10.030;2023-06-10T11:39:09;30.57;39.12
77727;SHT30;68312;53.502;10.030;2023-06-10T11:41:37;30.34;38.80
77727;SHT30;68312;53.502;10.030;2023-06-10T11:44:09;30.74;40.98
77727;SHT30;68312;53.502;10.030;2023-06-10T11:46:36;30.88;40.21
77727;SHT30;68312;53.502;10.030;2023-06-10T11:49:04;30.79;38.86
77727;SHT30;68312;53.502;10.030;2023-06-10T11:51:41;30.33;39.06
77727;SHT30;68312;53.502;10.030;2023-06-10T11:54:09;30.07;43.41
77727;SHT30;68312;53.502;10.030;2023-06-10T11:56:35;30.34;41.93
77727;SHT30;68312;53.502;10.030;2023-06-10T11:59:03;30.48;39.79
77727;SHT30;68312;53.502;10.030;2023-06-10T12:01:39;30.18;39.49
77727;SHT30;68312;53.502;10.030;2023-06-10T12:04:16;29.99;39.95
77727;SHT30;68312;53.502;10.030;2023-06-10T12:06:52;30.13;40.29
77727;SHT30;68312;53.502;10.030;2023-06-10T12:09:24;30.20;44.31
77727;SHT30;68312;53.502;10.030;2023-06-10T12:12:05;30.47;46.26
77727;SHT30;68312;53.502;10.030;2023-06-10T12:14:59;30.53;44.60
77727;SHT30;68312;53.502;10.030;2023-06-10T12:19:56;30.71;41.10
77727;SHT30;68312;53.502;10.030;2023-06-10T12:22:22;30.57;39.59
77727;SHT30;68312;53.502;10.030;2023-06-10T12:25:00;30.64;45.81
77727;SHT30;68312;53.502;10.030;2023-06-10T12:27:27;30.81;43.17
77727;SHT30;68312;53.502;10.030;2023-06-10T12:29:52;30.69;41.70
77727;SHT30;68312;53.502;10.030;2023-06-10T12:32:18;30.89;42.89
77727;SHT30;68312;53.502;10.030;2023-06-10T12:34:43;30.89;39.50
77727;SHT30;68312;53.502;10.030;2023-06-10T12:37:12;30.35;39.67
77727;SHT30;68312;53.502;10.030;2023-06-10T12:39:39;30.14;42.35
77727;SHT30;68312;53.502;10.030;2023-06-10T12:42:05;30.24;41.42
77727;SHT30;68312;53.502;10.030;2023-06-10T12:44:34;30.41;42.12
77727;SHT30;68312;53.502;10.030;2023-06-10T12:47:07;30.67;39.86
77727;SHT30;68312;53.502;10.030;2023-06-10T12:49:36;30.55;39.93
77727;SHT30;68312;53.502;10.030;2023-06-10T12:52:03;31.03;39.75
77727;SHT30;68312;53.502;10.030;2023-06-10T12:54:29;30.68;39.12
77727;SHT30;68312;53.502;10.030;2023-06-10T12:56:55;30.81;39.24
77727;SHT30;68312;53.502;10.030;2023-06-10T12:59:20;31.27;38.30
77727;SHT30;68312;53.502;10.030;2023-06-10T13:01:55;31.54;39.52
77727;SHT30;68312;53.502;10.030;2023-06-10T13:04:21;31.53;37.49
77727;SHT30;68312;53.502;10.030;2023-06-10T13:06:47;31.94;38.17
77727;SHT30;68312;53.502;10.030;2023-06-10T13:09:13;31.94;37.10
77727;SHT30;68312;53.502;10.030;2023-06-10T13:11:39;32.00;38.94
77727;SHT30;68312;53.502;10.030;2023-06-10T13:14:05;32.19;37.15
77727;SHT30;68312;53.502;10.030;2023-06-10T13:16:32;31.95;35.84
77727;SHT30;68312;53.502;10.030;2023-06-10T13:18:58;31.84;35.91
77727;SHT30;68312;53.502;10.030;2023-06-10T13:21:24;31.92;38.14
77727;SHT30;68312;53.502;10.030;2023-06-10T13:23:50;32.02;35.40
77727;SHT30;68312;53.502;10.030;2023-06-10T13:26:15;32.00;35.28
77727;SHT30;68312;53.502;10.030;2023-06-10T13:28:43;31.84;35.71
77727;SHT30;68312;53.502;10.030;2023-06-10T13:31:09;32.05;36.26
77727;SHT30;68312;53.502;10.030;2023-06-10T13:33:34;32.29;34.75
77727;SHT30;68312;53.502;10.030;2023-06-10T13:36:00;32.42;36.34
77727;SHT30;68312;53.502;10.030;2023-06-10T13:38:26;32.56;34.97
77727;SHT30;68312;53.502;10.030;2023-06-10T13:40:53;32.63;36.68
77727;SHT30;68312;53.502;10.030;2023-06-10T13:43:18;32.43;37.49
77727;SHT30;68312;53.502;10.030;2023-06-10T13:45:44;32.55;36.28
77727;SHT30;68312;53.502;10.030;2023-06-10T13:48:10;32.73;34.95
77727;SHT30;68312;53.502;10.030;2023-06-10T13:50:35;32.70;33.93
77727;SHT30;68312;53.502;10.030;2023-06-10T13:53:00;32.70;36.96
77727;SHT30;68312;53.502;10.030;2023-06-10T13:55:26;32.58;35.27
77727;SHT30;68312;53.502;10.030;2023-06-10T13:57:51;32.83;38.27
77727;SHT30;68312;53.502;10.030;2023-06-10T14:00:17;32.90;36.83
77727;SHT30;68312;53.502;10.030;2023-06-10T14:02:43;32.91;36.29
77727;SHT30;68312;53.502;10.030;2023-06-10T14:05:08;32.42;37.78
77727;SHT30;68312;53.502;10.030;2023-06-10T14:07:34;32.42;38.12
77727;SHT30;68312;53.502;10.030;2023-06-10T14:10:00;32.17;38.20
77727;SHT30;68312;53.502;10.030;2023-06-10T14:12:25;31.81;38.54
77727;SHT30;68312;53.502;10.030;2023-06-10T14:14:51;31.98;39.00
77727;SHT30;68312;53.502;10.030;2023-06-10T14:17:16;32.08;38.19
77727;SHT30;68312;53.502;10.030;2023-06-10T14:19:42;32.01;38.74
77727;SHT30;68312;53.502;10.030;2023-06-10T14:22:07;32.49;38.06
77727;SHT30;68312;53.502;10.030;2023-06-10T14:24:33;32.33;37.97
77727;SHT30;68312;53.502;10.030;2023-06-10T14:26:58;32.52;38.05
77727;SHT30;68312;53.502;10.030;2023-06-10T14:29:24;32.70;37.68
77727;SHT30;68312;53.502;10.030;2023-06-10T14:31:49;32.27;39.05
77727;SHT30;68312;53.502;10.030;2023-06-10T14:34:15;32.72;37.69
77727;SHT30;68312;53.502;10.030;2023-06-10T14:36:40;32.70;38.24
77727;SHT30;68312;53.502;10.030;2023-06-10T14:39:06;32.95;37.63
77727;SHT30;68312;53.502;10.030;2023-06-10T14:41:31;32.53;37.65
77727;SHT30;68312;53.502;10.030;2023-06-10T14:43:57;32.17;38.64
77727;SHT30;68312;53.502;10.030;2023-06-10T14:46:22;32.48;38.64
77727;SHT30;68312;53.502;10.030;2023-06-10T14:48:48;32.43;38.57
77727;SHT30;68312;53.502;10.030;2023-06-10T14:51:13;32.32;37.91
77727;SHT30;68312;53.502;10.030;2023-06-10T14:53:39;31.87;39.35
77727;SHT30;68312;53.502;10.030;2023-06-10T14:56:04;31.43;39.81
77727;SHT30;68312;53.502;10.030;2023-06-10T14:58:30;31.32;39.57
77727;SHT30;68312;53.502;10.030;2023-06-10T15:00:55;31.46;41.63
77727;SHT30;68312;53.502;10.030;2023-06-10T15:03:21;31.77;40.01
77727;SHT30;68312;53.502;10.030;2023-06-10T15:05:46;31.71;39.53
77727;SHT30;68312;53.502;10.030;2023-06-10T15:08:12;31.67;39.68
77727;SHT30;68312;53.502;10.030;2023-06-10T15:10:37;31.56;39.86
77727;SHT30;68312;53.502;10.030;2023-06-10T15:13:03;31.43;39.79
77727;SHT30;68312;53.502;10.030;2023-06-10T15:15:28;31.16;40.73
77727;SHT30;68312;53.502;10.030;2023-06-10T15:17:54;30.86;42.30
77727;SHT30;68312;53.502;10.030;2023-06-10T15:20:19;29.92;42.74
77727;SHT30;68312;53.502;10.030;2023-06-10T15:22:45;29.37;44.01
77727;SHT30;68312;53.502;10.030;2023-06-10T15:25:11;28.90;47.76
77727;SHT30;68312;53.502;10.030;2023-06-10T15:27:39;28.35;47.09
77727;SHT30;68312;53.502;10.030;2023-06-10T15:30:07;28.13;46.88
77727;SHT30;68312;53.502;10.030;2023-06-10T15:32:33;28.04;47.08